Terminal Aerodrome Forecast
Issued by NWS

Home | Current Version | Previous Version | Text Only | Print | Product List | Glossary On
Versions: 1 2 3 4 5 6 7 8 9 10 11 12 13 14 15 16 17 18 19 20 21 22 23 24
000
FTUS43 KEAX 281737
TAFSTJ
TAF
KSTJ 281737Z 2818/2918 19015G23KT P6SM BKN100
     FM282200 19010KT P6SM VCTS SCT040CB BKN080
      TEMPO 2822/2824 5SM -TSRA BKN040CB
     FM290300 VRB04KT P6SM BKN040
     FM290800 32008KT 5SM BR BKN015
     FM291400 34011KT P6SM BKN025=

USA.gov is the U.S. government's official web portal to all federal, state and local government web resources and services.